Terminal Aerodrome Forecast
Issued by NWS Jackson, KY

Home | Current Version | Previous Version | Text Only | Print | Product List | Glossary On
Versions: 1 2 3 4 5 6 7 8 9 10 11 12 13 14 15
000
FTUS43 KJKL 171100
TAFLOZ
TAF
KLOZ 171139Z 1712/1812 VRB03KT 3SM BR SCT002
      TEMPO 1712/1713 3/4SM BR VV002
     FM171300 20006KT P6SM FEW250
     FM171700 23011G21KT P6SM SCT045
     FM180000 25006KT P6SM SCT045
     FM181100 28004KT P6SM BKN025=

USA.gov is the U.S. government's official web portal to all federal, state and local government web resources and services.